Time,TemperatureF,DewpointF,PressureIn,WindDirection,WindDirectionDegrees,WindSpeedMPH,WindSpeedGustMPH,Humidity,HourlyPrecipIn,Conditions,Clouds,dailyrainin,SoftwareType,DateUTC
2013-11-28 00:22:00,24.0,12.0,-100.00,WNW,290,3.0,7.0,60,0.00,,,-99.99,,2013-11-28 05:22:00,
2013-11-28 00:53:00,23.0,12.0,-100.00,NW,305,4.0,12.0,61,0.00,,,-99.99,,2013-11-28 05:53:00,
2013-11-28 01:22:00,23.0,12.0,-100.00,West,270,4.0,9.0,62,0.00,,,-99.99,,2013-11-28 06:22:00,
2013-11-28 01:52:00,22.0,12.0,-100.00,West,260,3.0,7.0,64,0.00,,,-99.99,,2013-11-28 06:52:00,
2013-11-28 02:22:00,21.0,11.0,-100.00,West,280,5.0,9.0,64,0.00,,,-99.99,,2013-11-28 07:22:00,
2013-11-28 02:52:00,20.0,10.0,-100.00,West,265,3.0,10.0,64,0.00,,,-99.99,,2013-11-28 07:52:00,
2013-11-28 03:22:00,20.0,10.0,-100.00,West,265,3.0,6.0,65,0.00,,,-99.99,,2013-11-28 08:22:00,
2013-11-28 03:53:00,18.0,9.0,-100.00,West,270,3.0,6.0,67,0.00,,,-99.99,,2013-11-28 08:53:00,
2013-11-28 04:21:00,18.0,9.0,-100.00,SW,235,1.0,6.0,68,0.00,,,-99.99,,2013-11-28 09:21:00,
2013-11-28 04:53:00,17.0,9.0,-100.00,WSW,245,1.0,4.0,69,0.00,,,-99.99,,2013-11-28 09:53:00,
2013-11-28 05:23:00,17.0,9.0,-100.00,WNW,285,1.0,3.0,71,0.00,,,-99.99,,2013-11-28 10:23:00,
2013-11-28 05:52:00,16.0,9.0,-100.00,West,260,1.0,4.0,72,0.00,,,-99.99,,2013-11-28 10:52:00,
2013-11-28 06:22:00,17.0,10.0,-100.00,SSW,195,2.0,4.0,72,0.00,,,-99.99,,2013-11-28 11:22:00,
2013-11-28 06:52:00,17.0,9.0,-100.00,SSW,195,2.0,4.0,72,0.00,,,-99.99,,2013-11-28 11:52:00,
2013-11-28 07:22:00,17.0,10.0,-100.00,WSW,240,1.0,5.0,72,0.00,,,-99.99,,2013-11-28 12:22:00,
2013-11-28 07:52:00,17.0,10.0,-100.00,West,265,3.0,4.0,72,0.00,,,-99.99,,2013-11-28 12:52:00,
2013-11-28 08:22:00,19.0,11.0,-100.00,WSW,250,4.0,7.0,71,0.00,,,-99.99,,2013-11-28 13:22:00,
2013-11-28 08:52:00,20.0,12.0,-100.00,SW,235,3.0,7.0,70,0.00,,,-99.99,,2013-11-28 13:52:00,
2013-11-28 09:22:00,20.0,12.0,-100.00,SSW,210,4.0,11.0,71,0.00,,,-99.99,,2013-11-28 14:22:00,
2013-11-28 09:52:00,21.0,15.0,-100.00,West,265,4.0,9.0,76,0.00,,,-99.99,,2013-11-28 14:52:00,
2013-11-28 10:22:00,22.0,16.0,-100.00,West,260,3.0,8.0,77,0.00,,,-99.99,,2013-11-28 15:22:00,
2013-11-28 10:54:00,24.0,17.0,-100.00,SSW,210,2.0,6.0,74,0.00,,,-99.99,,2013-11-28 15:54:00,
2013-11-28 11:23:00,25.0,17.0,-100.00,WSW,245,2.0,6.0,70,0.00,,,-99.99,,2013-11-28 16:23:00,
2013-11-28 11:53:00,26.0,14.0,-100.00,SW,230,4.0,7.0,60,0.00,,,-99.99,,2013-11-28 16:53:00,
2013-11-28 12:23:00,27.0,13.0,-100.00,SSW,195,5.0,9.0,54,0.00,,,-99.99,,2013-11-28 17:23:00,
2013-11-28 12:52:00,26.0,13.0,-100.00,SW,215,4.0,11.0,56,0.00,,,-99.99,,2013-11-28 17:52:00,
2013-11-28 13:22:00,27.0,15.0,-100.00,SSW,210,6.0,7.0,58,0.00,,,-99.99,,2013-11-28 18:22:00,
2013-11-28 13:52:00,27.0,17.0,-100.00,SW,215,6.0,12.0,66,0.00,,,-99.99,,2013-11-28 18:52:00,
2013-11-28 14:22:00,28.0,19.0,-100.00,SW,215,6.0,11.0,70,0.00,,,-99.99,,2013-11-28 19:22:00,
2013-11-28 14:52:00,28.0,19.0,-100.00,SSW,195,7.0,9.0,70,0.00,,,-99.99,,2013-11-28 19:52:00,
2013-11-28 15:22:00,27.0,19.0,-100.00,SSW,200,4.0,12.0,71,0.00,,,-99.99,,2013-11-28 20:22:00,
2013-11-28 15:52:00,27.0,19.0,-100.00,SW,220,6.0,13.0,72,0.00,,,-99.99,,2013-11-28 20:52:00,
2013-11-28 16:21:00,27.0,19.0,-100.00,SW,215,6.0,11.0,72,0.00,,,-99.99,,2013-11-28 21:21:00,
2013-11-28 16:53:00,27.0,19.0,-100.00,SSW,205,6.0,11.0,72,0.00,,,-99.99,,2013-11-28 21:53:00,
2013-11-28 17:23:00,27.0,19.0,-100.00,SSW,200,6.0,15.0,72,0.00,,,-99.99,,2013-11-28 22:23:00,
2013-11-28 17:53:00,27.0,19.0,-100.00,SW,215,4.0,10.0,71,0.00,,,-99.99,,2013-11-28 22:53:00,
2013-11-28 18:22:00,27.0,19.0,-100.00,SSW,195,3.0,7.0,71,0.00,,,-99.99,,2013-11-28 23:22:00,
2013-11-28 18:52:00,27.0,19.0,-100.00,SW,230,4.0,6.0,72,0.00,,,-99.99,,2013-11-28 23:52:00,
2013-11-28 19:21:00,27.0,19.0,-100.00,SSW,205,3.0,6.0,73,0.00,,,-99.99,,2013-11-29 00:21:00,
2013-11-28 19:52:00,27.0,19.0,-100.00,SW,215,3.0,4.0,74,0.00,,,-99.99,,2013-11-29 00:52:00,
2013-11-28 20:21:00,27.0,20.0,-100.00,SSW,205,2.0,4.0,75,0.00,,,-99.99,,2013-11-29 01:21:00,
2013-11-28 20:52:00,27.0,20.0,-100.00,SSW,205,3.0,5.0,75,0.00,,,-99.99,,2013-11-29 01:52:00,
2013-11-28 21:22:00,26.0,20.0,-100.00,SSW,210,2.0,4.0,76,0.00,,,-99.99,,2013-11-29 02:22:00,
2013-11-28 21:52:00,26.0,20.0,-100.00,SW,215,3.0,5.0,77,0.00,,,-99.99,,2013-11-29 02:52:00,
2013-11-28 22:21:00,26.0,20.0,-100.00,SW,215,2.0,4.0,77,0.00,,,-99.99,,2013-11-29 03:21:00,
2013-11-28 22:53:00,26.0,20.0,-100.00,SSW,210,1.0,3.0,77,0.00,,,-99.99,,2013-11-29 03:53:00,
2013-11-28 23:23:00,26.0,20.0,-100.00,SSW,210,2.0,3.0,77,0.00,,,-99.99,,2013-11-29 04:23:00,
2013-11-28 23:52:00,26.0,20.0,-100.00,SW,225,1.0,3.0,78,0.00,,,-99.99,,2013-11-29 04:52:00,